createdAt,value
2019-04-22T00:01:27.066Z,37.48
2019-04-22T00:06:51.737Z,38.38
2019-04-22T00:12:00.417Z,35.05
2019-04-22T00:17:10.023Z,35.25
2019-04-22T00:22:19.535Z,32.60
2019-04-22T00:27:20.224Z,31.05
2019-04-22T00:32:19.456Z,28.40
2019-04-22T00:37:28.331Z,30.05
2019-04-22T00:42:36.061Z,32.45
2019-04-22T00:47:50.805Z,31.85
2019-04-22T00:52:47.779Z,30.85
2019-04-22T00:57:46.211Z,28.98
2019-04-22T01:02:54.362Z,28.95
2019-04-22T01:08:08.336Z,26.82
2019-04-22T01:13:04.728Z,25.37
2019-04-22T01:18:11.488Z,24.80
2019-04-22T01:23:21.246Z,23.47
2019-04-22T01:28:14.218Z,25.85
2019-04-22T01:33:13.971Z,27.05
2019-04-22T01:38:31.328Z,25.60
2019-04-22T01:43:54.405Z,26.57
2019-04-22T01:48:47.747Z,25.30
2019-04-22T01:54:01.698Z,23.25
2019-04-22T01:58:49.905Z,27.82
2019-04-22T02:04:09.646Z,21.90
2019-04-22T02:09:20.467Z,21.75
2019-04-22T02:14:19.888Z,17.75
2019-04-22T02:19:28.428Z,17.25
2019-04-22T02:24:28.242Z,17.80
2019-04-22T02:29:42.414Z,18.98
2019-04-22T02:34:54.073Z,21.02
2019-04-22T02:39:47.092Z,21.00
2019-04-22T02:44:53.665Z,21.25
2019-04-22T03:00:16.225Z,18.67
2019-04-22T03:05:20.631Z,20.00
2019-04-22T03:10:29.536Z,17.25
2019-04-22T03:15:20.295Z,19.67
2019-04-22T03:20:50.098Z,21.37
2019-04-22T03:26:01.099Z,22.65
2019-04-22T03:30:59.197Z,25.88
2019-04-22T03:36:36.452Z,24.98
2019-04-22T03:46:00.923Z,24.95
2019-04-22T03:51:22.333Z,25.12
2019-04-22T03:56:36.541Z,24.77
2019-04-22T04:01:32.038Z,26.30
2019-04-22T04:06:36.231Z,21.65
2019-04-22T04:11:45.167Z,21.25
2019-04-22T04:16:39.091Z,20.12
2019-04-22T04:21:44.269Z,23.25
2019-04-22T04:26:54.913Z,22.70
2019-04-22T04:32:09.829Z,24.65
2019-04-22T04:37:07.020Z,22.62
2019-04-22T04:42:16.187Z,21.42
2019-04-22T04:47:32.913Z,21.27
2019-04-22T04:52:33.542Z,22.87
2019-04-22T04:57:33.842Z,22.90
2019-04-22T05:02:46.629Z,19.17
2019-04-22T05:07:36.058Z,20.77
2019-04-22T05:17:54.192Z,21.82
2019-04-22T05:32:54.141Z,13.55
2019-04-22T05:38:03.119Z,14.18
2019-04-22T05:43:01.861Z,14.63
2019-04-22T05:48:13.628Z,14.73
2019-04-22T05:53:14.842Z,17.17
2019-04-22T05:58:22.992Z,20.80
2019-04-22T06:03:28.792Z,24.37
2019-04-22T06:08:38.977Z,23.15
2019-04-22T06:13:33.111Z,27.15
2019-04-22T06:18:54.906Z,24.55
2019-04-22T06:23:54.491Z,28.87
2019-04-22T06:39:12.829Z,26.93
2019-04-22T06:49:23.839Z,26.23
2019-04-22T06:54:27.890Z,27.93
2019-04-22T06:59:32.752Z,29.65
2019-04-22T07:04:33.861Z,24.45
2019-04-22T07:14:48.449Z,25.30
2019-04-22T07:19:52.815Z,24.35
2019-04-22T07:24:58.539Z,23.00
2019-04-22T07:30:09.185Z,22.37
2019-04-22T07:35:19.406Z,26.10
2019-04-22T07:40:16.855Z,25.32
2019-04-22T07:45:22.574Z,25.25
2019-04-22T07:50:37.714Z,23.05
2019-04-22T07:55:32.733Z,26.90
2019-04-22T08:00:40.143Z,24.30
2019-04-22T08:05:52.113Z,27.02
2019-04-22T08:16:10.590Z,26.40
2019-04-22T08:26:04.995Z,23.27
2019-04-22T08:31:19.148Z,20.50
2019-04-22T08:36:26.418Z,43.35
2019-04-22T08:41:31.859Z,32.85
2019-04-22T08:46:35.179Z,25.12
2019-04-22T08:51:36.024Z,29.10
2019-04-22T08:56:45.586Z,36.03
2019-04-22T09:01:47.003Z,34.80
2019-04-22T09:07:07.270Z,33.60
2019-04-22T09:11:59.896Z,29.02
2019-04-22T09:17:07.450Z,24.15
2019-04-22T09:22:13.665Z,18.73
2019-04-22T09:27:22.546Z,19.37
2019-04-22T09:32:20.275Z,15.95
2019-04-22T09:37:34.497Z,13.25
2019-04-22T09:42:32.282Z,13.15
2019-04-22T09:47:43.577Z,12.65
2019-04-22T09:52:51.473Z,12.28
2019-04-22T09:57:52.474Z,10.50
2019-04-22T10:13:15.435Z,11.00
2019-04-22T10:18:12.865Z,8.20
2019-04-22T10:23:20.047Z,6.75
2019-04-22T10:28:23.401Z,7.47
2019-04-22T10:33:24.013Z,8.55
2019-04-22T10:38:10.235Z,8.73
2019-04-22T10:43:15.101Z,6.05
2019-04-22T10:48:19.247Z,7.03
2019-04-22T10:53:23.784Z,9.53
2019-04-22T10:58:28.846Z,8.90
2019-04-22T11:03:33.173Z,7.97
2019-04-22T11:08:43.516Z,9.45
2019-04-22T11:13:43.939Z,6.08
2019-04-22T11:18:49.504Z,6.03
2019-04-22T11:23:54.592Z,7.67
2019-04-22T11:28:59.405Z,8.85
2019-04-22T11:34:03.299Z,7.92
2019-04-22T11:39:11.151Z,20.20
2019-04-22T11:44:14.953Z,12.05
2019-04-22T11:49:19.054Z,13.70
2019-04-22T11:54:23.091Z,8.25
2019-04-22T11:59:27.000Z,9.95
2019-04-22T12:04:32.080Z,8.23
2019-04-22T12:09:37.456Z,7.33
2019-04-22T12:14:42.437Z,2.45
2019-04-22T12:19:46.439Z,3.47
2019-04-22T12:24:50.599Z,2.37
2019-04-22T12:29:54.463Z,1.80
2019-04-22T12:34:59.638Z,2.20
2019-04-22T12:40:06.502Z,2.85
2019-04-22T12:45:12.165Z,2.70
2019-04-22T12:50:24.297Z,2.55
2019-04-22T12:55:23.812Z,3.37
2019-04-22T13:00:30.032Z,4.25
2019-04-22T13:05:35.273Z,2.35
2019-04-22T13:10:49.517Z,2.17
2019-04-22T13:15:44.846Z,3.08
2019-04-22T13:20:48.710Z,2.60
2019-04-22T13:25:52.732Z,2.45
2019-04-22T13:30:59.644Z,4.67
2019-04-22T13:36:03.647Z,3.05
2019-04-22T13:41:21.227Z,1.62
2019-04-22T13:46:14.495Z,2.83
2019-04-22T13:51:52.874Z,3.25
2019-04-22T13:56:46.307Z,4.15
2019-04-22T14:01:34.708Z,2.20
2019-04-22T14:06:38.848Z,3.37
2019-04-22T14:11:49.411Z,2.83
2019-04-22T14:16:49.113Z,2.83
2019-04-22T14:21:53.782Z,4.33
2019-04-22T14:27:13.568Z,3.83
2019-04-22T14:32:11.470Z,2.58
2019-04-22T14:37:09.960Z,3.12
2019-04-22T14:42:36.393Z,4.40
2019-04-22T14:47:47.605Z,10.20
2019-04-22T14:52:47.515Z,3.77
2019-04-22T14:57:32.318Z,4.45
2019-04-22T15:02:37.535Z,3.02
2019-04-22T15:07:41.305Z,5.50
2019-04-22T15:12:49.713Z,4.62
2019-04-22T15:17:56.474Z,3.65
2019-04-22T15:23:02.302Z,4.30
2019-04-22T15:28:06.621Z,4.80
2019-04-22T15:33:11.700Z,3.10
2019-04-22T15:38:17.289Z,5.10
2019-04-22T15:43:22.747Z,3.42
2019-04-22T15:48:27.237Z,3.72
2019-04-22T15:53:31.660Z,4.70
2019-04-22T15:58:35.884Z,3.55
2019-04-22T16:03:40.664Z,2.75
2019-04-22T16:08:45.699Z,3.08
2019-04-22T16:13:50.538Z,2.65
2019-04-22T16:18:54.606Z,2.37
2019-04-22T16:24:11.111Z,2.20
2019-04-22T16:29:16.588Z,3.47
2019-04-22T16:34:21.646Z,5.28
2019-04-22T16:39:26.943Z,5.75
2019-04-22T16:44:32.260Z,5.33
2019-04-22T16:49:37.354Z,6.53
2019-04-22T16:54:42.123Z,5.50
2019-04-22T16:59:46.624Z,5.47
2019-04-22T17:04:53.450Z,5.55
2019-04-22T17:09:57.640Z,6.92
2019-04-22T17:15:07.578Z,6.37
2019-04-22T17:20:07.409Z,7.25
2019-04-22T17:25:12.062Z,6.62
2019-04-22T17:30:16.744Z,5.87
2019-04-22T17:35:22.004Z,7.45
2019-04-22T17:40:48.744Z,6.70
2019-04-22T17:46:00.182Z,6.37
2019-04-22T17:51:22.710Z,7.28
2019-04-22T17:56:20.552Z,5.90
2019-04-22T18:01:28.188Z,5.87
2019-04-22T18:06:35.017Z,5.25
2019-04-22T18:11:39.695Z,5.25
2019-04-22T18:16:41.446Z,3.52
2019-04-22T18:21:45.893Z,6.00
2019-04-22T18:26:55.531Z,5.42
2019-04-22T18:31:47.630Z,5.25
2019-04-22T18:37:01.800Z,5.75
2019-04-22T18:42:05.997Z,4.28
2019-04-22T18:47:13.059Z,6.08
2019-04-22T18:52:24.756Z,6.83
2019-04-22T18:57:27.399Z,6.60
2019-04-22T19:02:22.900Z,6.17
2019-04-22T19:07:49.591Z,5.50
2019-04-22T19:13:15.632Z,5.33
2019-04-22T19:18:01.852Z,6.37
2019-04-22T19:29:55.843Z,6.35
2019-04-22T19:35:22.855Z,7.10
2019-04-22T19:45:55.849Z,4.83
2019-04-22T19:51:04.322Z,5.70
2019-04-22T19:56:01.456Z,5.40
2019-04-22T20:01:13.046Z,5.45
2019-04-22T20:06:27.143Z,5.37
2019-04-22T20:11:35.615Z,4.80
2019-04-22T20:16:34.233Z,4.50
2019-04-22T20:21:49.379Z,4.75
2019-04-22T20:26:50.177Z,4.65
2019-04-22T20:31:59.100Z,6.25
2019-04-22T20:37:28.532Z,5.85
2019-04-22T20:42:24.916Z,6.12
2019-04-22T20:47:09.266Z,5.60
2019-04-22T20:52:27.785Z,6.72
2019-04-22T20:57:24.094Z,7.50
2019-04-22T21:02:26.754Z,7.72
2019-04-22T21:07:36.176Z,9.75
2019-04-22T21:12:33.945Z,11.53
2019-04-22T21:17:45.835Z,8.48
2019-04-22T21:22:56.510Z,8.78
2019-04-22T21:27:56.576Z,8.68
2019-04-22T21:33:01.973Z,8.08
2019-04-22T21:38:14.584Z,8.03
2019-04-22T21:43:18.546Z,9.03
2019-04-22T21:53:31.811Z,8.70
2019-04-22T21:58:38.327Z,9.28
2019-04-22T22:03:42.914Z,11.68
2019-04-22T22:08:46.101Z,11.73
2019-04-22T22:13:50.272Z,8.65
2019-04-22T22:19:02.298Z,11.65
2019-04-22T22:24:06.142Z,12.07
2019-04-22T22:29:26.842Z,9.63
2019-04-22T22:34:21.348Z,11.40
2019-04-22T22:39:14.689Z,13.20
2019-04-22T22:44:14.063Z,8.55
2019-04-22T22:49:32.959Z,12.07
2019-04-22T22:54:43.948Z,10.28
2019-04-22T22:59:46.099Z,8.90
2019-04-22T23:04:54.460Z,10.00
2019-04-22T23:09:55.109Z,9.70
2019-04-22T23:15:01.276Z,9.25
2019-04-22T23:19:50.303Z,10.35
2019-04-22T23:25:17.303Z,8.78
2019-04-22T23:30:20.879Z,9.70
2019-04-22T23:35:35.380Z,9.08
2019-04-22T23:40:38.935Z,11.20
2019-04-22T23:45:46.591Z,10.03
2019-04-22T23:50:57.298Z,11.00
2019-04-22T23:56:00.202Z,8.93
